sensor_id;sensor_type;location;lat;lon;timestamp;P1;durP1;ratioP1;P2;durP2;ratioP2
60819;SDS011;46641;48.904;9.126;2024-01-11T00:00:55;23.63;;;16.00;;
60819;SDS011;46641;48.904;9.126;2024-01-11T00:05:45;21.33;;;15.83;;
60819;SDS011;46641;48.904;9.126;2024-01-11T00:10:35;25.48;;;17.15;;
60819;SDS011;46641;48.904;9.126;2024-01-11T00:15:26;26.87;;;16.87;;
60819;SDS011;46641;48.904;9.126;2024-01-11T00:20:16;27.02;;;17.02;;
60819;SDS011;46641;48.904;9.126;2024-01-11T00:25:07;22.27;;;16.47;;
60819;SDS011;46641;48.904;9.126;2024-01-11T00:29:58;25.23;;;17.10;;
60819;SDS011;46641;48.904;9.126;2024-01-11T00:34:48;27.70;;;18.27;;
60819;SDS011;46641;48.904;9.126;2024-01-11T00:39:39;28.75;;;18.48;;
60819;SDS011;46641;48.904;9.126;2024-01-11T00:44:29;26.60;;;17.80;;
60819;SDS011;46641;48.904;9.126;2024-01-11T00:49:19;28.93;;;18.80;;
60819;SDS011;46641;48.904;9.126;2024-01-11T00:54:09;26.65;;;18.50;;
60819;SDS011;46641;48.904;9.126;2024-01-11T00:59:00;26.45;;;17.25;;
60819;SDS011;46641;48.904;9.126;2024-01-11T01:03:50;27.30;;;16.30;;
60819;SDS011;46641;48.904;9.126;2024-01-11T01:08:40;30.30;;;20.33;;
60819;SDS011;46641;48.904;9.126;2024-01-11T01:13:31;25.40;;;17.70;;
60819;SDS011;46641;48.904;9.126;2024-01-11T01:18:21;28.83;;;19.03;;
60819;SDS011;46641;48.904;9.126;2024-01-11T01:23:11;32.20;;;20.15;;
60819;SDS011;46641;48.904;9.126;2024-01-11T01:28:01;26.43;;;16.70;;
60819;SDS011;46641;48.904;9.126;2024-01-11T01:32:52;27.13;;;16.83;;
60819;SDS011;46641;48.904;9.126;2024-01-11T01:37:43;30.40;;;19.37;;
60819;SDS011;46641;48.904;9.126;2024-01-11T01:42:33;31.67;;;20.87;;
60819;SDS011;46641;48.904;9.126;2024-01-11T01:47:23;27.30;;;18.77;;
60819;SDS011;46641;48.904;9.126;2024-01-11T01:52:14;30.17;;;19.33;;
60819;SDS011;46641;48.904;9.126;2024-01-11T01:57:06;26.03;;;18.90;;
60819;SDS011;46641;48.904;9.126;2024-01-11T02:01:59;27.73;;;17.80;;
60819;SDS011;46641;48.904;9.126;2024-01-11T02:06:50;29.70;;;18.70;;
60819;SDS011;46641;48.904;9.126;2024-01-11T02:11:43;22.30;;;15.53;;
60819;SDS011;46641;48.904;9.126;2024-01-11T02:16:34;22.80;;;14.47;;
60819;SDS011;46641;48.904;9.126;2024-01-11T02:21:25;26.88;;;17.15;;
60819;SDS011;46641;48.904;9.126;2024-01-11T02:26:18;27.03;;;18.27;;
60819;SDS011;46641;48.904;9.126;2024-01-11T02:31:09;28.98;;;17.95;;
60819;SDS011;46641;48.904;9.126;2024-01-11T02:36:00;25.70;;;18.23;;
60819;SDS011;46641;48.904;9.126;2024-01-11T02:40:50;26.23;;;18.27;;
60819;SDS011;46641;48.904;9.126;2024-01-11T02:45:41;26.93;;;18.43;;
60819;SDS011;46641;48.904;9.126;2024-01-11T02:50:31;27.55;;;18.15;;
60819;SDS011;46641;48.904;9.126;2024-01-11T02:55:22;25.80;;;17.73;;
60819;SDS011;46641;48.904;9.126;2024-01-11T03:00:12;23.40;;;15.80;;
60819;SDS011;46641;48.904;9.126;2024-01-11T03:05:03;24.50;;;17.13;;
60819;SDS011;46641;48.904;9.126;2024-01-11T03:09:53;27.33;;;18.97;;
60819;SDS011;46641;48.904;9.126;2024-01-11T03:14:43;24.98;;;16.60;;
60819;SDS011;46641;48.904;9.126;2024-01-11T03:19:34;29.75;;;17.33;;
60819;SDS011;46641;48.904;9.126;2024-01-11T03:24:31;29.67;;;19.43;;
60819;SDS011;46641;48.904;9.126;2024-01-11T03:29:22;24.13;;;16.40;;
60819;SDS011;46641;48.904;9.126;2024-01-11T03:34:12;25.52;;;17.70;;
60819;SDS011;46641;48.904;9.126;2024-01-11T03:39:02;28.37;;;17.47;;
60819;SDS011;46641;48.904;9.126;2024-01-11T03:43:53;28.97;;;18.43;;
60819;SDS011;46641;48.904;9.126;2024-01-11T03:48:43;29.58;;;18.83;;
60819;SDS011;46641;48.904;9.126;2024-01-11T03:53:36;29.52;;;17.50;;
60819;SDS011;46641;48.904;9.126;2024-01-11T03:58:27;26.47;;;17.40;;
60819;SDS011;46641;48.904;9.126;2024-01-11T04:03:17;26.87;;;17.37;;
60819;SDS011;46641;48.904;9.126;2024-01-11T04:08:07;27.75;;;16.98;;
60819;SDS011;46641;48.904;9.126;2024-01-11T04:12:57;24.95;;;16.45;;
60819;SDS011;46641;48.904;9.126;2024-01-11T04:17:48;25.23;;;16.30;;
60819;SDS011;46641;48.904;9.126;2024-01-11T04:22:38;27.85;;;17.98;;
60819;SDS011;46641;48.904;9.126;2024-01-11T04:27:28;25.70;;;17.52;;
60819;SDS011;46641;48.904;9.126;2024-01-11T04:32:18;26.08;;;17.25;;
60819;SDS011;46641;48.904;9.126;2024-01-11T04:37:09;27.70;;;17.85;;
60819;SDS011;46641;48.904;9.126;2024-01-11T04:41:59;30.17;;;18.97;;
60819;SDS011;46641;48.904;9.126;2024-01-11T04:46:50;28.00;;;18.83;;
60819;SDS011;46641;48.904;9.126;2024-01-11T04:51:41;24.80;;;16.50;;
60819;SDS011;46641;48.904;9.126;2024-01-11T04:56:31;30.38;;;18.05;;
60819;SDS011;46641;48.904;9.126;2024-01-11T05:01:21;29.90;;;18.93;;
60819;SDS011;46641;48.904;9.126;2024-01-11T05:06:18;24.20;;;15.87;;
60819;SDS011;46641;48.904;9.126;2024-01-11T05:11:15;24.17;;;16.23;;
60819;SDS011;46641;48.904;9.126;2024-01-11T05:16:17;28.80;;;18.03;;
60819;SDS011;46641;48.904;9.126;2024-01-11T05:21:14;29.73;;;18.57;;
60819;SDS011;46641;48.904;9.126;2024-01-11T05:26:05;31.70;;;18.23;;
60819;SDS011;46641;48.904;9.126;2024-01-11T05:30:55;19.43;;;13.93;;
60819;SDS011;46641;48.904;9.126;2024-01-11T05:35:46;25.17;;;17.08;;
60819;SDS011;46641;48.904;9.126;2024-01-11T05:40:36;24.73;;;16.40;;
60819;SDS011;46641;48.904;9.126;2024-01-11T05:45:26;26.87;;;15.70;;
60819;SDS011;46641;48.904;9.126;2024-01-11T05:50:17;26.73;;;18.07;;
60819;SDS011;46641;48.904;9.126;2024-01-11T05:55:07;24.60;;;15.60;;
60819;SDS011;46641;48.904;9.126;2024-01-11T05:59:57;25.80;;;16.07;;
60819;SDS011;46641;48.904;9.126;2024-01-11T06:04:48;24.08;;;16.08;;
60819;SDS011;46641;48.904;9.126;2024-01-11T06:09:39;27.20;;;17.73;;
60819;SDS011;46641;48.904;9.126;2024-01-11T06:14:29;27.07;;;18.07;;
60819;SDS011;46641;48.904;9.126;2024-01-11T06:19:19;28.90;;;17.70;;
60819;SDS011;46641;48.904;9.126;2024-01-11T06:24:10;25.65;;;16.63;;
60819;SDS011;46641;48.904;9.126;2024-01-11T06:29:00;37.10;;;28.63;;
60819;SDS011;46641;48.904;9.126;2024-01-11T06:33:50;34.22;;;27.27;;
60819;SDS011;46641;48.904;9.126;2024-01-11T06:38:40;27.85;;;20.88;;
60819;SDS011;46641;48.904;9.126;2024-01-11T06:43:31;33.17;;;24.17;;
60819;SDS011;46641;48.904;9.126;2024-01-11T06:48:21;32.03;;;26.35;;
60819;SDS011;46641;48.904;9.126;2024-01-11T06:53:12;26.85;;;18.73;;
60819;SDS011;46641;48.904;9.126;2024-01-11T06:58:02;29.10;;;19.40;;
60819;SDS011;46641;48.904;9.126;2024-01-11T07:02:52;28.53;;;18.90;;
60819;SDS011;46641;48.904;9.126;2024-01-11T07:07:43;29.17;;;19.17;;
60819;SDS011;46641;48.904;9.126;2024-01-11T07:12:34;26.42;;;18.42;;
60819;SDS011;46641;48.904;9.126;2024-01-11T07:17:24;30.73;;;20.70;;
60819;SDS011;46641;48.904;9.126;2024-01-11T07:22:15;31.43;;;20.27;;
60819;SDS011;46641;48.904;9.126;2024-01-11T07:27:05;28.07;;;18.77;;
60819;SDS011;46641;48.904;9.126;2024-01-11T07:31:56;27.07;;;18.20;;
60819;SDS011;46641;48.904;9.126;2024-01-11T07:36:47;30.20;;;18.65;;
60819;SDS011;46641;48.904;9.126;2024-01-11T07:41:37;28.75;;;19.05;;
60819;SDS011;46641;48.904;9.126;2024-01-11T07:46:27;30.30;;;20.38;;
60819;SDS011;46641;48.904;9.126;2024-01-11T07:51:18;30.75;;;18.05;;
60819;SDS011;46641;48.904;9.126;2024-01-11T07:56:09;33.67;;;22.33;;
60819;SDS011;46641;48.904;9.126;2024-01-11T08:01:00;32.53;;;20.63;;
60819;SDS011;46641;48.904;9.126;2024-01-11T08:05:50;34.88;;;21.65;;
60819;SDS011;46641;48.904;9.126;2024-01-11T08:10:40;29.90;;;20.23;;
60819;SDS011;46641;48.904;9.126;2024-01-11T08:15:30;35.07;;;25.50;;
60819;SDS011;46641;48.904;9.126;2024-01-11T08:20:21;30.30;;;20.37;;
60819;SDS011;46641;48.904;9.126;2024-01-11T08:25:11;25.00;;;17.40;;
60819;SDS011;46641;48.904;9.126;2024-01-11T08:30:03;30.90;;;21.47;;
60819;SDS011;46641;48.904;9.126;2024-01-11T08:34:56;29.23;;;19.77;;
60819;SDS011;46641;48.904;9.126;2024-01-11T08:39:47;28.33;;;19.87;;
60819;SDS011;46641;48.904;9.126;2024-01-11T08:44:41;25.45;;;17.25;;
60819;SDS011;46641;48.904;9.126;2024-01-11T08:49:32;29.17;;;17.63;;
60819;SDS011;46641;48.904;9.126;2024-01-11T08:54:22;27.60;;;18.87;;
60819;SDS011;46641;48.904;9.126;2024-01-11T08:59:13;25.67;;;16.60;;
60819;SDS011;46641;48.904;9.126;2024-01-11T09:04:03;28.55;;;18.00;;
60819;SDS011;46641;48.904;9.126;2024-01-11T09:08:55;27.67;;;17.20;;
60819;SDS011;46641;48.904;9.126;2024-01-11T09:13:45;30.30;;;19.10;;
60819;SDS011;46641;48.904;9.126;2024-01-11T09:18:35;33.03;;;26.73;;
60819;SDS011;46641;48.904;9.126;2024-01-11T09:23:26;34.50;;;27.08;;
60819;SDS011;46641;48.904;9.126;2024-01-11T09:28:16;34.13;;;23.65;;
60819;SDS011;46641;48.904;9.126;2024-01-11T09:33:06;32.53;;;21.95;;
60819;SDS011;46641;48.904;9.126;2024-01-11T09:37:56;33.13;;;22.58;;
60819;SDS011;46641;48.904;9.126;2024-01-11T09:42:47;34.97;;;21.83;;
60819;SDS011;46641;48.904;9.126;2024-01-11T09:47:38;35.80;;;22.00;;
60819;SDS011;46641;48.904;9.126;2024-01-11T09:52:30;34.33;;;21.13;;
60819;SDS011;46641;48.904;9.126;2024-01-11T09:57:26;31.03;;;21.20;;
60819;SDS011;46641;48.904;9.126;2024-01-11T10:02:19;33.37;;;21.77;;
60819;SDS011;46641;48.904;9.126;2024-01-11T10:07:10;29.87;;;19.70;;
60819;SDS011;46641;48.904;9.126;2024-01-11T10:12:01;35.30;;;29.60;;
60819;SDS011;46641;48.904;9.126;2024-01-11T10:16:51;34.40;;;22.47;;
60819;SDS011;46641;48.904;9.126;2024-01-11T10:21:44;30.07;;;20.60;;
60819;SDS011;46641;48.904;9.126;2024-01-11T10:26:34;31.65;;;21.95;;
60819;SDS011;46641;48.904;9.126;2024-01-11T10:31:28;30.10;;;21.17;;
60819;SDS011;46641;48.904;9.126;2024-01-11T10:36:19;33.87;;;22.40;;
60819;SDS011;46641;48.904;9.126;2024-01-11T10:41:09;34.63;;;21.73;;
60819;SDS011;46641;48.904;9.126;2024-01-11T10:46:03;33.27;;;21.60;;
60819;SDS011;46641;48.904;9.126;2024-01-11T10:50:59;29.23;;;20.13;;
60819;SDS011;46641;48.904;9.126;2024-01-11T10:55:51;30.73;;;19.57;;
60819;SDS011;46641;48.904;9.126;2024-01-11T11:00:41;26.23;;;18.60;;
60819;SDS011;46641;48.904;9.126;2024-01-11T11:05:32;35.03;;;20.77;;
60819;SDS011;46641;48.904;9.126;2024-01-11T11:10:28;34.00;;;22.67;;
60819;SDS011;46641;48.904;9.126;2024-01-11T11:15:18;29.57;;;21.60;;
60819;SDS011;46641;48.904;9.126;2024-01-11T11:20:10;35.40;;;21.60;;
60819;SDS011;46641;48.904;9.126;2024-01-11T11:25:04;29.10;;;21.13;;
60819;SDS011;46641;48.904;9.126;2024-01-11T11:30:18;36.30;;;22.13;;
60819;SDS011;46641;48.904;9.126;2024-01-11T11:35:10;39.43;;;27.10;;
60819;SDS011;46641;48.904;9.126;2024-01-11T11:40:00;33.57;;;22.93;;
60819;SDS011;46641;48.904;9.126;2024-01-11T11:44:50;33.47;;;22.17;;
60819;SDS011;46641;48.904;9.126;2024-01-11T11:49:58;32.37;;;20.60;;
60819;SDS011;46641;48.904;9.126;2024-01-11T11:54:54;35.20;;;22.67;;
60819;SDS011;46641;48.904;9.126;2024-01-11T11:59:46;34.00;;;22.53;;
60819;SDS011;46641;48.904;9.126;2024-01-11T12:04:38;32.27;;;21.47;;
60819;SDS011;46641;48.904;9.126;2024-01-11T12:09:29;37.07;;;25.17;;
60819;SDS011;46641;48.904;9.126;2024-01-11T12:14:19;39.57;;;33.00;;
60819;SDS011;46641;48.904;9.126;2024-01-11T12:19:10;33.93;;;24.87;;
60819;SDS011;46641;48.904;9.126;2024-01-11T12:24:01;35.57;;;23.57;;
60819;SDS011;46641;48.904;9.126;2024-01-11T12:28:51;37.23;;;24.27;;
60819;SDS011;46641;48.904;9.126;2024-01-11T12:33:42;34.63;;;26.07;;
60819;SDS011;46641;48.904;9.126;2024-01-11T12:38:33;35.20;;;22.40;;
60819;SDS011;46641;48.904;9.126;2024-01-11T12:43:24;40.80;;;32.37;;
60819;SDS011;46641;48.904;9.126;2024-01-11T12:48:14;32.63;;;25.40;;
60819;SDS011;46641;48.904;9.126;2024-01-11T12:53:07;36.27;;;23.20;;
60819;SDS011;46641;48.904;9.126;2024-01-11T12:58:05;36.70;;;27.30;;
60819;SDS011;46641;48.904;9.126;2024-01-11T13:03:01;32.33;;;21.70;;
60819;SDS011;46641;48.904;9.126;2024-01-11T13:07:51;33.93;;;23.80;;
60819;SDS011;46641;48.904;9.126;2024-01-11T13:12:41;33.20;;;22.77;;
60819;SDS011;46641;48.904;9.126;2024-01-11T13:17:32;38.57;;;25.17;;
60819;SDS011;46641;48.904;9.126;2024-01-11T13:22:22;34.25;;;23.30;;
60819;SDS011;46641;48.904;9.126;2024-01-11T13:27:13;33.43;;;23.47;;
60819;SDS011;46641;48.904;9.126;2024-01-11T13:32:03;35.97;;;25.20;;
60819;SDS011;46641;48.904;9.126;2024-01-11T13:36:54;32.57;;;24.20;;
60819;SDS011;46641;48.904;9.126;2024-01-11T13:41:44;30.98;;;22.20;;
60819;SDS011;46641;48.904;9.126;2024-01-11T13:46:34;33.00;;;23.35;;
60819;SDS011;46641;48.904;9.126;2024-01-11T13:51:25;31.27;;;21.67;;
60819;SDS011;46641;48.904;9.126;2024-01-11T13:56:15;36.80;;;24.98;;
60819;SDS011;46641;48.904;9.126;2024-01-11T14:01:05;32.93;;;22.57;;
60819;SDS011;46641;48.904;9.126;2024-01-11T14:05:57;34.33;;;21.90;;
60819;SDS011;46641;48.904;9.126;2024-01-11T14:10:48;28.87;;;19.87;;
60819;SDS011;46641;48.904;9.126;2024-01-11T14:15:38;31.40;;;21.17;;
60819;SDS011;46641;48.904;9.126;2024-01-11T14:20:30;33.67;;;24.70;;
60819;SDS011;46641;48.904;9.126;2024-01-11T14:25:21;30.83;;;21.27;;
60819;SDS011;46641;48.904;9.126;2024-01-11T14:30:14;33.93;;;22.30;;
60819;SDS011;46641;48.904;9.126;2024-01-11T14:35:05;34.17;;;23.50;;
60819;SDS011;46641;48.904;9.126;2024-01-11T14:39:55;39.47;;;24.70;;
60819;SDS011;46641;48.904;9.126;2024-01-11T14:44:46;34.37;;;22.33;;
60819;SDS011;46641;48.904;9.126;2024-01-11T14:49:36;30.50;;;22.15;;
60819;SDS011;46641;48.904;9.126;2024-01-11T14:54:26;33.40;;;22.73;;
60819;SDS011;46641;48.904;9.126;2024-01-11T14:59:17;32.27;;;22.47;;
60819;SDS011;46641;48.904;9.126;2024-01-11T15:04:07;32.80;;;22.20;;
60819;SDS011;46641;48.904;9.126;2024-01-11T15:08:58;32.83;;;22.30;;
60819;SDS011;46641;48.904;9.126;2024-01-11T15:13:48;31.43;;;23.13;;
60819;SDS011;46641;48.904;9.126;2024-01-11T15:18:38;34.03;;;21.73;;
60819;SDS011;46641;48.904;9.126;2024-01-11T15:23:29;30.60;;;22.70;;
60819;SDS011;46641;48.904;9.126;2024-01-11T15:28:19;30.90;;;21.40;;
60819;SDS011;46641;48.904;9.126;2024-01-11T15:33:10;31.77;;;22.92;;
60819;SDS011;46641;48.904;9.126;2024-01-11T15:38:00;31.40;;;21.87;;
60819;SDS011;46641;48.904;9.126;2024-01-11T15:42:51;30.87;;;21.27;;
60819;SDS011;46641;48.904;9.126;2024-01-11T15:47:41;29.48;;;20.38;;
60819;SDS011;46641;48.904;9.126;2024-01-11T15:52:31;26.27;;;19.93;;
60819;SDS011;46641;48.904;9.126;2024-01-11T15:57:21;32.90;;;22.13;;
60819;SDS011;46641;48.904;9.126;2024-01-11T16:02:12;35.33;;;21.88;;
60819;SDS011;46641;48.904;9.126;2024-01-11T16:07:04;34.67;;;22.23;;
60819;SDS011;46641;48.904;9.126;2024-01-11T16:11:57;30.23;;;21.70;;
60819;SDS011;46641;48.904;9.126;2024-01-11T16:16:47;28.13;;;20.40;;
60819;SDS011;46641;48.904;9.126;2024-01-11T16:21:37;31.40;;;21.10;;
60819;SDS011;46641;48.904;9.126;2024-01-11T16:26:29;31.53;;;22.00;;
60819;SDS011;46641;48.904;9.126;2024-01-11T16:31:19;31.63;;;22.27;;
60819;SDS011;46641;48.904;9.126;2024-01-11T16:36:10;31.97;;;21.63;;
60819;SDS011;46641;48.904;9.126;2024-01-11T16:41:00;30.27;;;21.50;;
60819;SDS011;46641;48.904;9.126;2024-01-11T16:45:50;30.10;;;22.08;;
60819;SDS011;46641;48.904;9.126;2024-01-11T16:50:41;32.17;;;22.53;;
60819;SDS011;46641;48.904;9.126;2024-01-11T16:55:31;28.53;;;21.03;;
60819;SDS011;46641;48.904;9.126;2024-01-11T17:00:22;27.87;;;19.70;;
60819;SDS011;46641;48.904;9.126;2024-01-11T17:05:13;29.40;;;21.13;;
60819;SDS011;46641;48.904;9.126;2024-01-11T17:10:03;35.90;;;22.70;;
60819;SDS011;46641;48.904;9.126;2024-01-11T17:14:54;37.13;;;22.97;;
60819;SDS011;46641;48.904;9.126;2024-01-11T17:19:44;49.03;;;26.83;;
60819;SDS011;46641;48.904;9.126;2024-01-11T17:24:34;49.00;;;28.20;;
60819;SDS011;46641;48.904;9.126;2024-01-11T17:29:24;53.77;;;30.70;;
60819;SDS011;46641;48.904;9.126;2024-01-11T17:34:15;37.57;;;23.77;;
60819;SDS011;46641;48.904;9.126;2024-01-11T17:39:06;30.73;;;22.25;;
60819;SDS011;46641;48.904;9.126;2024-01-11T17:43:56;29.93;;;21.07;;
60819;SDS011;46641;48.904;9.126;2024-01-11T17:48:46;31.03;;;20.57;;
60819;SDS011;46641;48.904;9.126;2024-01-11T17:53:37;28.25;;;21.20;;
60819;SDS011;46641;48.904;9.126;2024-01-11T17:58:27;32.67;;;22.40;;
60819;SDS011;46641;48.904;9.126;2024-01-11T18:03:17;35.88;;;25.17;;
60819;SDS011;46641;48.904;9.126;2024-01-11T18:08:07;29.17;;;20.33;;
60819;SDS011;46641;48.904;9.126;2024-01-11T18:12:58;30.33;;;21.70;;
60819;SDS011;46641;48.904;9.126;2024-01-11T18:17:48;33.10;;;24.33;;
60819;SDS011;46641;48.904;9.126;2024-01-11T18:22:38;30.80;;;22.00;;
60819;SDS011;46641;48.904;9.126;2024-01-11T18:27:29;39.33;;;26.10;;
60819;SDS011;46641;48.904;9.126;2024-01-11T18:32:19;43.03;;;28.00;;
60819;SDS011;46641;48.904;9.126;2024-01-11T18:37:10;38.10;;;26.63;;
60819;SDS011;46641;48.904;9.126;2024-01-11T18:42:00;41.57;;;29.33;;
60819;SDS011;46641;48.904;9.126;2024-01-11T18:46:51;35.90;;;27.43;;
60819;SDS011;46641;48.904;9.126;2024-01-11T18:51:42;39.60;;;27.20;;
60819;SDS011;46641;48.904;9.126;2024-01-11T18:56:32;41.83;;;26.77;;
60819;SDS011;46641;48.904;9.126;2024-01-11T19:01:23;43.53;;;29.67;;
60819;SDS011;46641;48.904;9.126;2024-01-11T19:06:15;43.60;;;29.27;;
60819;SDS011;46641;48.904;9.126;2024-01-11T19:11:05;36.65;;;25.05;;
60819;SDS011;46641;48.904;9.126;2024-01-11T19:15:56;37.27;;;25.27;;
60819;SDS011;46641;48.904;9.126;2024-01-11T19:20:46;30.97;;;21.77;;
60819;SDS011;46641;48.904;9.126;2024-01-11T19:25:42;36.67;;;25.87;;
60819;SDS011;46641;48.904;9.126;2024-01-11T19:30:32;33.45;;;24.13;;
60819;SDS011;46641;48.904;9.126;2024-01-11T19:35:23;33.75;;;23.40;;
60819;SDS011;46641;48.904;9.126;2024-01-11T19:40:13;35.03;;;25.30;;
60819;SDS011;46641;48.904;9.126;2024-01-11T19:45:04;36.00;;;24.57;;
60819;SDS011;46641;48.904;9.126;2024-01-11T19:49:55;36.63;;;24.63;;
60819;SDS011;46641;48.904;9.126;2024-01-11T19:54:46;28.83;;;20.97;;
60819;SDS011;46641;48.904;9.126;2024-01-11T19:59:36;33.28;;;22.55;;
60819;SDS011;46641;48.904;9.126;2024-01-11T20:04:27;33.67;;;24.67;;
60819;SDS011;46641;48.904;9.126;2024-01-11T20:09:17;35.20;;;24.67;;
60819;SDS011;46641;48.904;9.126;2024-01-11T20:14:08;34.73;;;24.17;;
60819;SDS011;46641;48.904;9.126;2024-01-11T20:18:58;29.57;;;21.60;;
60819;SDS011;46641;48.904;9.126;2024-01-11T20:23:49;32.93;;;22.20;;
60819;SDS011;46641;48.904;9.126;2024-01-11T20:28:39;30.33;;;23.00;;
60819;SDS011;46641;48.904;9.126;2024-01-11T20:33:29;33.13;;;24.30;;
60819;SDS011;46641;48.904;9.126;2024-01-11T20:38:20;33.70;;;24.17;;
60819;SDS011;46641;48.904;9.126;2024-01-11T20:43:10;31.80;;;24.00;;
60819;SDS011;46641;48.904;9.126;2024-01-11T20:48:01;33.87;;;24.17;;
60819;SDS011;46641;48.904;9.126;2024-01-11T20:52:51;37.08;;;23.95;;
60819;SDS011;46641;48.904;9.126;2024-01-11T20:57:41;37.83;;;25.53;;
60819;SDS011;46641;48.904;9.126;2024-01-11T21:02:32;34.47;;;24.58;;
60819;SDS011;46641;48.904;9.126;2024-01-11T21:07:22;31.35;;;22.15;;
60819;SDS011;46641;48.904;9.126;2024-01-11T21:12:12;33.30;;;23.50;;
60819;SDS011;46641;48.904;9.126;2024-01-11T21:17:02;40.38;;;24.92;;
60819;SDS011;46641;48.904;9.126;2024-01-11T21:21:53;34.60;;;23.73;;
60819;SDS011;46641;48.904;9.126;2024-01-11T21:26:43;35.67;;;25.50;;
60819;SDS011;46641;48.904;9.126;2024-01-11T21:31:34;37.70;;;23.57;;
60819;SDS011;46641;48.904;9.126;2024-01-11T21:36:24;32.80;;;21.30;;
60819;SDS011;46641;48.904;9.126;2024-01-11T21:41:15;40.10;;;25.70;;
60819;SDS011;46641;48.904;9.126;2024-01-11T21:46:05;34.85;;;24.30;;
60819;SDS011;46641;48.904;9.126;2024-01-11T21:50:57;34.43;;;23.00;;
60819;SDS011;46641;48.904;9.126;2024-01-11T21:55:48;36.90;;;23.67;;
60819;SDS011;46641;48.904;9.126;2024-01-11T22:00:39;33.17;;;24.43;;
60819;SDS011;46641;48.904;9.126;2024-01-11T22:05:29;43.25;;;28.80;;
60819;SDS011;46641;48.904;9.126;2024-01-11T22:10:20;44.37;;;28.97;;
60819;SDS011;46641;48.904;9.126;2024-01-11T22:15:11;50.58;;;30.02;;
60819;SDS011;46641;48.904;9.126;2024-01-11T22:20:01;41.40;;;26.33;;
60819;SDS011;46641;48.904;9.126;2024-01-11T22:24:51;51.55;;;30.10;;
60819;SDS011;46641;48.904;9.126;2024-01-11T22:29:42;52.70;;;31.27;;
60819;SDS011;46641;48.904;9.126;2024-01-11T22:34:33;41.30;;;26.93;;
60819;SDS011;46641;48.904;9.126;2024-01-11T22:39:23;36.53;;;23.48;;
60819;SDS011;46641;48.904;9.126;2024-01-11T22:44:13;46.17;;;29.80;;
60819;SDS011;46641;48.904;9.126;2024-01-11T22:49:04;37.90;;;25.40;;
60819;SDS011;46641;48.904;9.126;2024-01-11T22:53:54;37.87;;;24.77;;
60819;SDS011;46641;48.904;9.126;2024-01-11T22:58:44;34.85;;;23.83;;
60819;SDS011;46641;48.904;9.126;2024-01-11T23:03:36;36.97;;;25.00;;
60819;SDS011;46641;48.904;9.126;2024-01-11T23:08:26;40.30;;;28.20;;
60819;SDS011;46641;48.904;9.126;2024-01-11T23:13:16;40.13;;;26.73;;
60819;SDS011;46641;48.904;9.126;2024-01-11T23:18:06;40.53;;;26.73;;
60819;SDS011;46641;48.904;9.126;2024-01-11T23:22:58;41.33;;;27.47;;
60819;SDS011;46641;48.904;9.126;2024-01-11T23:27:48;44.93;;;29.93;;
60819;SDS011;46641;48.904;9.126;2024-01-11T23:32:38;45.83;;;28.90;;
60819;SDS011;46641;48.904;9.126;2024-01-11T23:37:29;39.70;;;26.33;;
60819;SDS011;46641;48.904;9.126;2024-01-11T23:42:19;36.35;;;24.00;;
60819;SDS011;46641;48.904;9.126;2024-01-11T23:47:09;37.07;;;25.17;;
60819;SDS011;46641;48.904;9.126;2024-01-11T23:52:00;35.83;;;23.45;;
60819;SDS011;46641;48.904;9.126;2024-01-11T23:56:50;38.58;;;26.77;;
